Hope, Texas
Current Conditions -  °F | °C
As of 5:51 AM on Saturday 01 Nov 2014 (Local Time) from KVCT Reporting Station
Clear Clear  
Wind Chill: 44°   Ceiling: Unl
Heat Index: 48°   Visibility: 10mi
Dew Point: 42°   Wind: 8mph
Humidity: 80%   Direction: 10°N
Pressure: 30.32"   Gusts: NA
Location:  29.2421°N, 97.0692°W
Report Text: KVCT 011051Z AUTO 01007KT 10SM CLR 09/06 A3032 RMK AO2 SLP266 T00890056
Loading
Personal Weather Stations






























Interactive Weather Map
Tropical Storm Tracking
New forecast layout! Learn more

10-Day Weather Forecast

Advertisements
Track Severe Weather on mobile